< < Back
Terminal Aerodrome Forecast


Current Version              Previous Versions:   1  2  3  4  5  6  7  8  9  

Terminal Aerodrome Forecast

433
FTUS44 KHUN 290541
TAFHSV
TAF
KHSV 290541Z 2906/3006 VRB03KT P6SM SCT040 BKN150 BKN250
      TEMPO 2909/2913 4SM BR
     FM291500 32005KT P6SM FEW070 BKN150
     FM291800 33006KT P6SM VCTS SCT050CB BKN150=



Latest METAR

187
SAUS80 KWBC 290600 RRA
MTRHSV
METAR KHSV 290553Z AUTO 17004KT 10SM CLR 26/23 A2997 RMK AO2 SLP139
60000 T02610233 10289 20261 403780244 58013


USA.gov is the U.S. government's official web portal to all federal, state and local government web resources and services.